Time;durP1;ratioP1;P1;durP2;ratioP2;P2;SDS_P1;SDS_P2;PMS_P1;PMS_P2;Temp;Humidity;BMP_temperature;BMP_pressure;BME280_temperature;BME280_humidity;BME280_pressure;Samples;Min_cycle;Max_cycle;Signal;HPM_P1;HPM_P2
2022/06/24 00:00:13;;;;;;;14.88;7.78;;;21.30;67.70;;;;;;5084181;28;20106;-80
2022/06/24 00:02:40;;;;;;;16.90;8.70;;;21.20;68.00;;;;;;5082244;28;20045;-81
2022/06/24 00:05:13;;;;;;;17.10;7.57;;;21.10;69.40;;;;;;5085051;28;20219;-80
2022/06/24 00:07:46;;;;;;;16.23;8.20;;;21.00;69.60;;;;;;5087573;28;20080;-80
2022/06/24 00:10:17;;;;;;;14.35;8.45;;;21.00;72.00;;;;;;5117963;28;20064;-78
2022/06/24 00:12:47;;;;;;;14.32;8.13;;;20.90;72.60;;;;;;5116468;28;20147;-81
2022/06/24 00:15:16;;;;;;;14.65;8.55;;;20.90;71.40;;;;;;5087557;28;20037;-81
2022/06/24 00:17:55;;;;;;;14.75;7.72;;;20.90;71.50;;;;;;5087584;28;20071;-81
2022/06/24 00:20:23;;;;;;;14.98;8.07;;;20.90;71.30;;;;;;5088456;28;20068;-79
2022/06/24 00:22:52;;;;;;;24.48;9.23;;;20.80;71.00;;;;;;5091394;28;20060;-79
2022/06/24 00:25:21;;;;;;;13.95;8.50;;;20.80;72.60;;;;;;5092189;28;20110;-79
2022/06/24 00:28:01;;;;;;;14.50;9.02;;;20.80;72.00;;;;;;5093458;28;20036;-79
2022/06/24 00:30:52;;;;;;;19.90;9.20;;;20.80;72.20;;;;;;5091469;28;20056;-80
2022/06/24 00:33:25;;;;;;;17.98;9.63;;;20.70;72.10;;;;;;5094113;28;20094;-79
2022/06/24 00:35:59;;;;;;;16.55;9.38;;;20.70;71.90;;;;;;5096419;28;20048;-78
2022/06/24 00:38:26;;;;;;;17.08;8.70;;;20.60;72.50;;;;;;5095121;28;20044;-79
2022/06/24 00:41:25;;;;;;;15.27;9.38;;;20.60;72.20;;;;;;5092395;28;20059;-78
2022/06/24 00:44:00;;;;;;;17.40;9.80;;;20.60;71.40;;;;;;5083568;28;20108;-79
2022/06/24 00:46:37;;;;;;;19.58;10.48;;;20.60;70.70;;;;;;5090736;28;20295;-81
2022/06/24 00:49:07;;;;;;;17.38;10.63;;;20.60;70.40;;;;;;5089689;28;20056;-81
2022/06/24 00:51:36;;;;;;;16.88;10.13;;;20.60;69.90;;;;;;5091389;28;20063;-79
2022/06/24 00:54:11;;;;;;;17.45;8.75;;;20.60;69.60;;;;;;5085623;28;20044;-81
2022/06/24 00:56:37;;;;;;;13.63;8.25;;;20.70;69.10;;;;;;5081006;28;20052;-81
2022/06/24 00:59:07;;;;;;;14.20;8.95;;;20.60;69.30;;;;;;5086521;28;20049;-80
2022/06/24 01:01:39;;;;;;;19.05;9.63;;;20.60;69.50;;;;;;5089044;28;20048;-78
2022/06/24 01:04:07;;;;;;;18.48;8.88;;;20.60;69.50;;;;;;5086983;28;20044;-78
2022/06/24 01:06:34;;;;;;;20.55;8.95;;;20.60;69.70;;;;;;5087220;28;20048;-79
2022/06/24 01:09:00;;;;;;;20.08;8.57;;;20.50;69.70;;;;;;5091234;28;20044;-80
2022/06/24 01:11:37;;;;;;;12.93;8.45;;;20.50;70.10;;;;;;5089243;28;20053;-79
2022/06/24 01:14:04;;;;;;;13.63;9.00;;;20.40;70.90;;;;;;5088595;28;20392;-79
2022/06/24 01:16:30;;;;;;;13.77;8.40;;;20.40;71.00;;;;;;5089481;28;20040;-80
2022/06/24 01:19:01;;;;;;;16.25;8.48;;;20.30;70.70;;;;;;5088804;28;20072;-78
2022/06/24 01:21:49;;;;;;;18.17;7.95;;;20.30;70.40;;;;;;5089490;28;20032;-79
2022/06/24 01:24:21;;;;;;;19.98;8.45;;;20.30;70.10;;;;;;5076611;28;20150;-78
2022/06/24 01:26:55;;;;;;;16.00;8.02;;;20.30;69.70;;;;;;5092357;28;20433;-79
2022/06/24 01:29:22;;;;;;;11.93;7.90;;;20.30;69.60;;;;;;5089153;28;20120;-82
2022/06/24 01:31:49;;;;;;;13.65;8.40;;;20.30;69.40;;;;;;5085684;28;20155;-81
2022/06/24 01:34:16;;;;;;;16.88;8.23;;;20.30;69.30;;;;;;5086252;28;20044;-80
2022/06/24 01:36:44;;;;;;;16.15;8.48;;;20.30;69.30;;;;;;5094879;28;20044;-77
2022/06/24 01:39:13;;;;;;;15.30;8.50;;;20.30;70.20;;;;;;5090853;28;20083;-81
2022/06/24 01:41:39;;;;;;;13.07;8.18;;;20.30;69.30;;;;;;5084647;28;20120;-80
2022/06/24 01:44:05;;;;;;;18.23;8.03;;;20.30;69.30;;;;;;5081516;28;20080;-80
2022/06/24 01:46:30;;;;;;;17.93;8.43;;;20.30;69.20;;;;;;5084012;28;20052;-81
2022/06/24 01:48:56;;;;;;;13.93;7.97;;;20.20;69.20;;;;;;5087562;28;20048;-79
2022/06/24 01:51:24;;;;;;;16.30;8.43;;;20.20;69.40;;;;;;5090418;28;20036;-79
2022/06/24 01:53:49;;;;;;;15.85;8.25;;;20.30;69.60;;;;;;5091418;28;20421;-81
2022/06/24 01:56:17;;;;;;;17.97;9.03;;;20.30;69.60;;;;;;5090365;28;20053;-78
2022/06/24 01:58:43;;;;;;;12.82;8.20;;;20.30;69.80;;;;;;5089470;28;20044;-78
2022/06/24 02:01:10;;;;;;;13.55;8.15;;;20.50;69.20;;;;;;5089176;28;20147;-78
2022/06/24 02:03:38;;;;;;;14.27;7.88;;;20.50;68.80;;;;;;5087385;28;20067;-80
2022/06/24 02:06:12;;;;;;;12.18;7.70;;;20.50;68.70;;;;;;5082813;28;20492;-83
2022/06/24 02:08:39;;;;;;;14.93;9.02;;;20.50;69.50;;;;;;5083288;28;20127;-82
2022/06/24 02:13:50;;;;;;;16.20;9.52;;;20.40;71.90;;;;;;5076728;28;19975;-78
2022/06/24 02:16:18;;;;;;;17.10;10.02;;;20.20;71.90;;;;;;5075951;28;20045;-78
2022/06/24 02:18:45;;;;;;;19.52;9.68;;;20.20;71.80;;;;;;5076985;28;20397;-78
2022/06/24 02:21:11;;;;;;;14.65;8.82;;;20.20;72.00;;;;;;5078035;28;20315;-78
2022/06/24 02:23:37;;;;;;;14.93;9.32;;;20.20;71.50;;;;;;5058666;28;20104;-78
2022/06/24 02:26:04;;;;;;;18.67;9.27;;;20.20;72.10;;;;;;5076830;28;20529;-81
2022/06/24 02:28:30;;;;;;;;;;;20.20;72.00;;;;;;5079948;28;20130;-79
2022/06/24 02:30:58;;;;;;;17.00;9.07;;;20.30;72.00;;;;;;5077158;28;19920;-80
2022/06/24 02:33:24;;;;;;;19.42;9.10;;;20.20;71.40;;;;;;5074868;28;20411;-80
2022/06/24 02:35:50;;;;;;;18.02;9.70;;;20.30;71.10;;;;;;5063194;28;20052;-79
2022/06/24 02:38:16;;;;;;;15.03;9.33;;;20.30;70.90;;;;;;5082900;28;20447;-79
2022/06/24 02:40:46;;;;;;;13.85;9.25;;;20.30;70.70;;;;;;5077104;28;20690;-80
2022/06/24 02:43:20;;;;;;;13.63;8.52;;;20.40;70.80;;;;;;5074441;28;20056;-80
2022/06/24 02:45:56;;;;;;;13.75;8.80;;;20.30;70.40;;;;;;5074411;28;20053;-80
2022/06/24 02:48:24;;;;;;;12.60;8.52;;;20.30;71.00;;;;;;5039964;28;20048;-79
2022/06/24 02:50:55;;;;;;;12.98;8.38;;;20.30;72.50;;;;;;5073999;28;20054;-81
2022/06/24 02:53:22;;;;;;;14.40;8.25;;;20.30;72.90;;;;;;5056392;28;20419;-82
2022/06/24 02:55:50;;;;;;;15.23;9.13;;;20.20;73.20;;;;;;5074111;28;20051;-80
2022/06/24 02:58:16;;;;;;;17.85;8.63;;;20.20;74.60;;;;;;5056104;28;20543;-79
2022/06/24 03:00:43;;;;;;;14.85;9.18;;;20.20;74.90;;;;;;5073024;28;20048;-80
2022/06/24 03:03:10;;;;;;;15.90;8.30;;;20.10;76.60;;;;;;5075545;28;20048;-80
2022/06/24 03:05:36;;;;;;;14.00;8.85;;;20.10;76.00;;;;;;5058068;28;20147;-82
2022/06/24 03:08:02;;;;;;;19.40;9.70;;;20.10;75.30;;;;;;5078633;28;20068;-80
2022/06/24 03:10:28;;;;;;;21.25;8.95;;;20.10;74.80;;;;;;5085734;28;20449;-81
2022/06/24 03:12:54;;;;;;;13.95;8.50;;;20.20;75.00;;;;;;5077467;28;20036;-80
2022/06/24 03:15:20;;;;;;;16.77;9.43;;;20.20;75.40;;;;;;5062816;28;20056;-82
2022/06/24 03:17:46;;;;;;;18.17;9.27;;;20.20;75.80;;;;;;5074287;28;20066;-82
2022/06/24 03:20:12;;;;;;;17.23;9.52;;;20.10;78.60;;;;;;5076752;28;20345;-82
2022/06/24 03:22:38;;;;;;;22.27;9.05;;;20.10;77.10;;;;;;5107723;28;20040;-81
2022/06/24 03:25:04;;;;;;;16.17;8.45;;;20.10;76.90;;;;;;5039773;28;20040;-81
2022/06/24 03:27:30;;;;;;;14.25;9.23;;;20.10;77.60;;;;;;5090609;28;20143;-82
2022/06/24 03:29:56;;;;;;;18.50;10.03;;;20.10;77.10;;;;;;5078382;28;20194;-80
2022/06/24 03:32:21;;;;;;;14.83;9.13;;;20.10;76.90;;;;;;5085617;28;20157;-80
2022/06/24 03:34:47;;;;;;;16.10;9.10;;;20.20;76.10;;;;;;5077178;28;20137;-80
2022/06/24 03:37:13;;;;;;;18.47;9.57;;;20.20;76.90;;;;;;5056397;28;20052;-82
2022/06/24 03:39:39;;;;;;;16.30;9.70;;;20.10;78.80;;;;;;5075658;28;20044;-78
2022/06/24 03:42:05;;;;;;;19.30;11.45;;;20.10;78.60;;;;;;5075626;28;20053;-82
2022/06/24 03:44:31;;;;;;;17.98;11.02;;;20.10;78.00;;;;;;5074471;28;20059;-81
2022/06/24 03:46:56;;;;;;;19.80;11.17;;;20.00;78.10;;;;;;5073423;28;20055;-80
2022/06/24 03:49:22;;;;;;;24.33;11.50;;;20.00;78.10;;;;;;5075599;28;20048;-81
2022/06/24 03:51:48;;;;;;;25.53;11.70;;;20.00;78.20;;;;;;5074962;28;20153;-81
2022/06/24 03:54:14;;;;;;;16.00;11.30;;;20.00;78.20;;;;;;5056603;28;20048;-82
2022/06/24 03:56:40;;;;;;;20.00;11.25;;;20.10;78.40;;;;;;5055213;28;20102;-82
2022/06/24 03:59:06;;;;;;;20.00;10.57;;;20.10;80.80;;;;;;5074252;28;20146;-82
2022/06/24 04:01:32;;;;;;;18.80;11.07;;;20.10;80.70;;;;;;5072112;28;20287;-82
2022/06/24 04:03:57;;;;;;;19.73;12.27;;;20.10;81.10;;;;;;5072779;28;20140;-81
2022/06/24 04:06:23;;;;;;;19.80;12.57;;;20.10;81.20;;;;;;5072368;28;20040;-81
2022/06/24 04:08:49;;;;;;;24.13;12.23;;;20.20;81.70;;;;;;5074078;28;20044;-83
2022/06/24 04:11:16;;;;;;;23.70;13.20;;;20.30;82.70;;;;;;5072924;28;20049;-81
2022/06/24 04:13:43;;;;;;;30.98;18.33;;;20.40;83.00;;;;;;5058349;28;20048;-81
2022/06/24 04:16:09;;;;;;;35.85;20.25;;;20.50;82.70;;;;;;5060842;28;20098;-79
2022/06/24 04:18:35;;;;;;;42.90;23.03;;;20.60;88.80;;;;;;5076806;28;20483;-81
2022/06/24 04:21:01;;;;;;;44.03;20.67;;;20.70;94.00;;;;;;5075494;28;20059;-79
2022/06/24 04:23:27;;;;;;;45.03;20.98;;;20.80;94.60;;;;;;5076109;28;20336;-80
2022/06/24 04:25:53;;;;;;;29.47;15.53;;;20.80;99.90;;;;;;5076077;28;20044;-79
2022/06/24 04:28:19;;;;;;;30.38;12.80;;;20.90;99.90;;;;;;5077732;28;20463;-80
2022/06/24 04:30:46;;;;;;;21.20;9.43;;;21.00;99.90;;;;;;5077415;28;20045;-79
2022/06/24 04:33:11;;;;;;;26.13;9.98;;;20.90;99.90;;;;;;5076371;28;20036;-77
2022/06/24 04:35:39;;;;;;;19.13;8.80;;;20.80;99.90;;;;;;5076448;28;20036;-78
2022/06/24 04:38:05;;;;;;;18.58;8.50;;;20.90;99.90;;;;;;5078025;28;20052;-76
2022/06/24 04:40:31;;;;;;;17.00;9.10;;;20.80;99.90;;;;;;5076165;28;20052;-78
2022/06/24 04:42:56;;;;;;;19.70;9.03;;;20.70;99.90;;;;;;5076263;28;20461;-81
2022/06/24 04:45:24;;;;;;;16.57;8.33;;;20.90;99.90;;;;;;5073962;28;20049;-81
2022/06/24 04:47:49;;;;;;;19.63;8.15;;;20.90;99.90;;;;;;5073955;28;20049;-79
2022/06/24 04:50:15;;;;;;;19.27;8.33;;;21.00;99.90;;;;;;5056865;28;20048;-80
2022/06/24 04:52:41;;;;;;;19.53;8.93;;;21.00;99.90;;;;;;5073371;28;20084;-79
2022/06/24 04:55:07;;;;;;;16.53;8.60;;;21.00;99.90;;;;;;5107323;28;20089;-77
2022/06/24 04:57:34;;;;;;;14.55;8.23;;;21.00;99.90;;;;;;5076039;28;20044;-81
2022/06/24 05:00:00;;;;;;;16.98;8.43;;;20.90;99.90;;;;;;5061194;28;20149;-77
2022/06/24 05:02:26;;;;;;;15.95;8.40;;;20.90;99.90;;;;;;5077401;28;20500;-80
2022/06/24 05:04:51;;;;;;;19.73;8.53;;;20.90;99.90;;;;;;5059131;28;20135;-80
2022/06/24 05:07:17;;;;;;;19.17;8.40;;;20.70;99.90;;;;;;5077947;28;20055;-78
2022/06/24 05:09:43;;;;;;;17.03;8.07;;;20.70;99.90;;;;;;5079784;28;20530;-77
2022/06/24 05:12:09;;;;;;;18.93;8.57;;;20.70;99.90;;;;;;5078532;28;20060;-79
2022/06/24 05:14:35;;;;;;;19.35;8.85;;;20.60;99.90;;;;;;5078366;28;20037;-80
2022/06/24 05:17:01;;;;;;;17.23;8.13;;;20.60;99.90;;;;;;5077933;28;20047;-79
2022/06/24 05:19:27;;;;;;;17.17;8.45;;;20.50;99.90;;;;;;5078530;28;20051;-77
2022/06/24 05:21:54;;;;;;;22.13;9.13;;;20.40;99.90;;;;;;5077652;28;20384;-79
2022/06/24 05:24:20;;;;;;;17.80;8.50;;;20.50;99.90;;;;;;5079911;28;20052;-83
2022/06/24 05:26:46;;;;;;;19.00;9.00;;;20.60;99.90;;;;;;5079355;28;20104;-81
2022/06/24 05:29:12;;;;;;;17.17;8.13;;;20.70;99.90;;;;;;5080769;28;20095;-80
2022/06/24 05:31:38;;;;;;;18.88;8.93;;;20.80;99.90;;;;;;5079829;28;20053;-83
2022/06/24 05:34:06;;;;;;;21.13;8.93;;;20.80;99.90;;;;;;5082557;28;20079;-78
2022/06/24 05:36:34;;;;;;;19.42;9.73;;;20.80;99.90;;;;;;5085339;28;20045;-80
2022/06/24 05:39:04;;;;;;;20.30;9.77;;;20.80;99.90;;;;;;5080659;28;20040;-81
2022/06/24 05:41:30;;;;;;;18.38;9.98;;;20.80;99.90;;;;;;5082480;28;20477;-80
2022/06/24 05:44:00;;;;;;;21.40;9.50;;;20.80;99.90;;;;;;5080470;28;20086;-82
2022/06/24 05:46:26;;;;;;;20.48;9.88;;;20.80;99.90;;;;;;5065665;28;20110;-84
2022/06/24 05:48:51;;;;;;;21.20;10.63;;;20.90;99.90;;;;;;5084133;28;20040;-81
2022/06/24 05:51:17;;;;;;;21.13;10.33;;;21.00;99.90;;;;;;5051533;28;20067;-85
2022/06/24 05:56:30;;;;;;;20.52;10.98;;;21.00;99.90;;;;;;5085679;28;20048;-81
2022/06/24 05:58:57;;;;;;;24.00;11.57;;;21.10;99.90;;;;;;5078727;28;20496;-83
2022/06/24 06:01:23;;;;;;;;;;;21.00;99.90;;;;;;5078906;28;20059;-83
2022/06/24 06:03:49;;;;;;;22.55;10.90;;;21.00;99.90;;;;;;5081829;28;19928;-81
2022/06/24 06:06:16;;;;;;;22.80;10.75;;;21.00;99.90;;;;;;5082229;28;20148;-82
2022/06/24 06:08:42;;;;;;;25.80;11.27;;;20.90;99.90;;;;;;5081127;28;20048;-82
2022/06/24 06:11:15;;;;;;;20.92;11.10;;;21.10;99.90;;;;;;5081562;28;20469;-82
2022/06/24 06:13:42;;;;;;;24.83;11.50;;;21.20;99.90;;;;;;5081596;28;20059;-81
2022/06/24 06:16:09;;;;;;;24.02;11.82;;;21.10;99.90;;;;;;5065540;28;20473;-82
2022/06/24 06:18:35;;;;;;;25.65;11.40;;;21.10;99.90;;;;;;5064795;28;20151;-82
2022/06/24 06:21:06;;;;;;;23.58;11.43;;;21.10;99.90;;;;;;5082673;28;20049;-81
2022/06/24 06:23:33;;;;;;;25.02;11.95;;;21.00;99.90;;;;;;5084452;28;20082;-80
2022/06/24 06:26:01;;;;;;;25.90;12.23;;;21.10;99.90;;;;;;5088329;28;20048;-83
2022/06/24 06:28:26;;;;;;;25.25;12.63;;;21.10;99.90;;;;;;5095373;28;20036;-81
2022/06/24 06:30:52;;;;;;;24.27;12.87;;;21.00;99.90;;;;;;5083837;28;20052;-83
2022/06/24 06:33:18;;;;;;;22.33;12.60;;;21.10;99.90;;;;;;5082802;28;20060;-82
2022/06/24 06:35:44;;;;;;;22.85;12.90;;;21.10;99.90;;;;;;5084468;28;20072;-82
2022/06/24 06:38:11;;;;;;;26.65;13.10;;;21.10;99.90;;;;;;5083205;28;20079;-82
2022/06/24 06:40:37;;;;;;;27.40;13.57;;;21.00;99.90;;;;;;5066599;28;20044;-82
2022/06/24 06:43:05;;;;;;;;;;;21.00;99.90;;;;;;5085122;28;20051;-81
2022/06/24 06:45:35;;;;;;;23.13;12.68;;;21.00;99.90;;;;;;5085640;28;19920;-81
2022/06/24 06:48:00;;;;;;;28.40;13.23;;;21.00;99.90;;;;;;5085580;28;20048;-81
2022/06/24 06:50:27;;;;;;;27.83;13.67;;;21.00;99.90;;;;;;5087788;28;20032;-80
2022/06/24 06:52:53;;;;;;;23.55;14.38;;;20.90;99.90;;;;;;5091620;28;20044;-81
2022/06/24 06:55:19;;;;;;;30.77;13.57;;;20.90;99.90;;;;;;5089536;28;20078;-80
2022/06/24 06:57:45;;;;;;;27.90;15.07;;;20.80;99.90;;;;;;5089220;28;20048;-80
2022/06/24 07:00:11;;;;;;;26.52;13.57;;;20.80;99.90;;;;;;5093372;28;20055;-81
2022/06/24 07:02:37;;;;;;;25.27;14.48;;;20.80;99.90;;;;;;5090944;28;20060;-79
2022/06/24 07:05:04;;;;;;;27.88;14.05;;;20.80;99.90;;;;;;5086150;28;20495;-81
2022/06/24 07:07:30;;;;;;;;;;;20.90;99.90;;;;;;5085690;28;20078;-80
2022/06/24 07:09:56;;;;;;;30.63;14.65;;;21.00;99.90;;;;;;5088279;28;19952;-79
2022/06/24 07:12:22;;;;;;;29.38;14.85;;;20.90;99.90;;;;;;5074701;28;20055;-82
2022/06/24 07:14:48;;;;;;;29.97;15.33;;;20.80;99.90;;;;;;5069029;28;20040;-79
2022/06/24 07:17:15;;;;;;;29.60;15.63;;;20.70;99.90;;;;;;5076301;28;20044;-78
2022/06/24 07:19:40;;;;;;;;;;;20.80;99.90;;;;;;5079337;28;20052;-77
2022/06/24 07:22:06;;;;;;;27.30;15.38;;;20.70;99.90;;;;;;5078192;28;19978;-78
2022/06/24 07:24:32;;;;;;;36.20;17.50;;;20.80;99.90;;;;;;5075314;28;20063;-81
2022/06/24 07:26:58;;;;;;;37.37;17.37;;;20.70;99.90;;;;;;5063430;28;20048;-80
2022/06/24 07:29:23;;;;;;;32.57;17.33;;;20.80;99.90;;;;;;5080185;28;20120;-80
2022/06/24 07:31:49;;;;;;;30.43;18.40;;;20.80;99.90;;;;;;5079562;28;20075;-81
2022/06/24 07:34:15;;;;;;;34.37;18.60;;;20.70;99.90;;;;;;5076028;28;20396;-79
2022/06/24 07:36:42;;;;;;;35.87;19.10;;;20.70;99.90;;;;;;5080435;28;20043;-79
2022/06/24 07:39:08;;;;;;;;;;;20.70;99.90;;;;;;5084010;28;20048;-81
2022/06/24 07:41:34;;;;;;;34.33;17.98;;;20.60;99.90;;;;;;5123037;28;19991;-78
2022/06/24 07:44:00;;;;;;;34.27;19.37;;;20.60;99.90;;;;;;5062740;28;20095;-77
2022/06/24 07:46:29;;;;;;;33.47;18.37;;;20.60;99.90;;;;;;5065035;28;20044;-78
2022/06/24 07:48:55;;;;;;;34.78;19.70;;;20.60;99.90;;;;;;5083594;28;20044;-78
2022/06/24 07:51:21;;;;;;;38.85;20.85;;;20.50;99.90;;;;;;5059613;28;20048;-77
2022/06/24 07:53:47;;;;;;;36.53;19.85;;;20.50;99.90;;;;;;5074070;28;20040;-77
2022/06/24 07:58:58;;;;;;;33.40;20.05;;;20.50;99.90;;;;;;5076462;28;20062;-78
2022/06/24 08:01:24;;;;;;;40.60;21.27;;;20.40;99.90;;;;;;5077785;28;20430;-77
2022/06/24 08:03:50;;;;;;;40.87;21.80;;;20.30;99.90;;;;;;5076650;28;20040;-79
2022/06/24 08:06:16;;;;;;;36.97;21.83;;;20.30;99.90;;;;;;5077065;28;20089;-79
2022/06/24 08:08:42;;;;;;;40.40;22.57;;;20.30;99.90;;;;;;5075151;28;20041;-80
2022/06/24 08:11:08;;;;;;;39.13;22.73;;;20.30;99.90;;;;;;5072021;28;20102;-81
2022/06/24 08:13:34;;;;;;;37.17;22.20;;;20.30;99.90;;;;;;5073447;28;20064;-79
2022/06/24 08:16:00;;;;;;;36.70;22.67;;;20.30;99.90;;;;;;5072855;28;20113;-78
2022/06/24 08:18:26;;;;;;;43.47;24.75;;;20.30;99.90;;;;;;5073242;28;20037;-78
2022/06/24 08:20:53;;;;;;;48.45;26.17;;;20.20;99.90;;;;;;5072227;28;20385;-79
2022/06/24 08:23:19;;;;;;;44.22;24.00;;;20.20;99.90;;;;;;5038585;28;20044;-80
2022/06/24 08:25:44;;;;;;;44.22;24.02;;;20.10;99.90;;;;;;5072005;28;20575;-77
2022/06/24 08:28:10;;;;;;;37.77;22.43;;;20.20;99.90;;;;;;5071449;28;20083;-79
2022/06/24 08:30:36;;;;;;;34.40;21.63;;;20.20;99.90;;;;;;5055760;28;20388;-78
2022/06/24 08:33:03;;;;;;;34.63;19.30;;;20.30;99.90;;;;;;5076143;28;20464;-78
2022/06/24 08:35:29;;;;;;;33.28;19.10;;;20.30;99.90;;;;;;5075838;28;20064;-77
2022/06/24 08:37:57;;;;;;;34.03;17.95;;;20.30;99.90;;;;;;5076902;28;20056;-77
2022/06/24 08:40:24;;;;;;;26.42;14.48;;;20.30;99.90;;;;;;5076646;28;20071;-77
2022/06/24 08:42:55;;;;;;;21.75;12.85;;;20.30;99.90;;;;;;5075402;28;20087;-77
2022/06/24 08:45:22;;;;;;;24.00;12.25;;;20.20;99.90;;;;;;5075819;28;20400;-78
2022/06/24 08:47:49;;;;;;;21.95;12.95;;;20.30;99.90;;;;;;5076666;28;20075;-77
2022/06/24 08:50:15;;;;;;;;;;;20.20;99.90;;;;;;5075681;28;20144;-77
2022/06/24 08:52:49;;;;;;;22.08;13.07;;;20.20;99.90;;;;;;5076337;28;19920;-76
2022/06/24 08:55:16;;;;;;;25.30;13.52;;;20.10;99.90;;;;;;5075960;28;20048;-79
2022/06/24 08:57:43;;;;;;;24.98;13.57;;;20.00;99.90;;;;;;5076259;28;20057;-77
2022/06/24 09:00:09;;;;;;;28.98;14.48;;;20.00;99.90;;;;;;5076537;28;20071;-74
2022/06/24 09:02:35;;;;;;;33.47;13.95;;;19.90;99.90;;;;;;5077330;28;20186;-74
2022/06/24 09:05:09;;;;;;;25.30;10.10;;;19.80;99.90;;;;;;5075263;28;20520;-75
2022/06/24 09:07:35;;;;;;;26.55;8.55;;;19.70;99.90;;;;;;5075762;28;20149;-74
2022/06/24 09:10:04;;;;;;;22.63;7.63;;;19.50;99.90;;;;;;5076036;28;20088;-75
2022/06/24 09:12:36;;;;;;;17.80;7.38;;;19.40;99.90;;;;;;5076245;28;20052;-76
2022/06/24 09:15:07;;;;;;;21.63;7.22;;;19.20;99.90;;;;;;5075878;28;20084;-76
2022/06/24 09:17:34;;;;;;;19.92;7.05;;;19.00;99.90;;;;;;5075879;28;20087;-74
2022/06/24 09:20:08;;;;;;;13.52;6.35;;;18.80;99.90;;;;;;5081411;28;20049;-76
2022/06/24 09:22:34;;;;;;;13.93;6.25;;;18.60;99.90;;;;;;5088587;28;20065;-77
2022/06/24 09:25:01;;;;;;;14.30;5.97;;;18.60;99.90;;;;;;5077673;28;20465;-75
2022/06/24 09:27:27;;;;;;;15.65;6.10;;;18.50;99.90;;;;;;5074455;28;20442;-74
2022/06/24 09:29:53;;;;;;;13.37;6.17;;;18.40;99.90;;;;;;5075694;28;20040;-76
2022/06/24 09:32:18;;;;;;;12.60;6.03;;;18.30;99.90;;;;;;5074259;28;20041;-77
2022/06/24 09:35:06;;;;;;;18.17;6.60;;;18.40;99.90;;;;;;5074265;28;20056;-77
2022/06/24 09:37:39;;;;;;;15.75;6.93;;;18.30;99.90;;;;;;5073683;28;20041;-76
2022/06/24 09:40:29;;;;;;;13.38;7.20;;;18.30;99.90;;;;;;5076047;28;20048;-78
2022/06/24 09:43:05;;;;;;;16.27;7.20;;;18.30;99.90;;;;;;5074419;28;20044;-77
2022/06/24 09:45:51;;;;;;;16.67;6.90;;;18.20;99.90;;;;;;5073785;28;20409;-78
2022/06/24 09:48:29;;;;;;;21.17;7.95;;;18.30;99.90;;;;;;5075363;28;20443;-80
2022/06/24 09:50:56;;;;;;;14.88;7.43;;;18.30;99.90;;;;;;5075351;28;20106;-78
2022/06/24 09:53:27;;;;;;;16.98;7.57;;;18.30;99.90;;;;;;5074958;28;20395;-78
2022/06/24 09:55:54;;;;;;;15.48;7.80;;;18.20;99.90;;;;;;5075377;28;20041;-79
2022/06/24 09:58:21;;;;;;;11.65;6.25;;;18.20;99.90;;;;;;5057587;28;20056;-79
2022/06/24 10:00:49;;;;;;;14.60;6.50;;;18.20;99.90;;;;;;5075575;28;20049;-78
2022/06/24 10:03:15;;;;;;;14.20;6.10;;;18.20;99.90;;;;;;5058268;28;20435;-76
2022/06/24 10:05:47;;;;;;;11.80;5.35;;;18.20;99.90;;;;;;5075566;28;20041;-78
2022/06/24 10:08:23;;;;;;;15.82;6.20;;;18.20;99.90;;;;;;5075003;28;20045;-78
2022/06/24 10:10:52;;;;;;;10.88;5.72;;;18.20;99.90;;;;;;5075921;28;20500;-80
2022/06/24 10:13:29;;;;;;;10.55;5.75;;;18.10;99.90;;;;;;5058730;28;20062;-78
2022/06/24 10:15:57;;;;;;;12.85;5.97;;;18.10;99.90;;;;;;5076175;28;20094;-76
2022/06/24 10:18:27;;;;;;;12.65;6.68;;;18.20;99.90;;;;;;5075609;28;20049;-78
2022/06/24 10:20:59;;;;;;;12.98;6.68;;;18.30;99.90;;;;;;5080069;28;20112;-77
2022/06/24 10:23:48;;;;;;;12.50;6.03;;;18.40;99.90;;;;;;5082597;28;20413;-78
2022/06/24 10:26:28;;;;;;;10.05;5.80;;;18.50;99.90;;;;;;5077228;28;20158;-77
2022/06/24 10:29:17;;;;;;;13.73;5.85;;;18.70;99.90;;;;;;5074969;28;20437;-77
2022/06/24 10:34:25;;;;;;;12.00;6.57;;;19.10;99.90;;;;;;5074861;28;20067;-75
2022/06/24 10:37:03;;;;;;;13.70;6.35;;;19.20;99.90;;;;;;5073391;28;20112;-75
2022/06/24 10:39:43;;;;;;;14.38;6.70;;;19.30;99.90;;;;;;5074536;28;20052;-80
2022/06/24 10:42:10;;;;;;;16.45;7.75;;;19.30;99.90;;;;;;5073712;28;20102;-78
2022/06/24 10:44:38;;;;;;;14.77;8.05;;;19.30;99.90;;;;;;5072707;28;20052;-77
2022/06/24 10:47:12;;;;;;;17.38;9.00;;;19.40;99.90;;;;;;5056185;28;20154;-78
2022/06/24 10:49:55;;;;;;;16.15;8.52;;;19.60;99.90;;;;;;5074410;28;20079;-75
2022/06/24 10:52:51;;;;;;;13.13;8.77;;;19.80;99.90;;;;;;5074084;28;20049;-78
2022/06/24 10:57:56;;;;;;;16.70;9.80;;;20.10;99.90;;;;;;5073819;28;20048;-77
2022/06/24 11:00:39;;;;;;;16.52;9.85;;;20.20;99.90;;;;;;5072554;28;20049;-76
2022/06/24 11:03:04;;;;;;;19.85;9.48;;;20.20;99.90;;;;;;5074186;28;20063;-79
2022/06/24 11:05:33;;;;;;;16.30;9.47;;;20.20;99.90;;;;;;5073702;28;20045;-80
2022/06/24 11:08:00;;;;;;;15.00;8.27;;;20.20;99.90;;;;;;5056515;28;20052;-80
2022/06/24 11:10:29;;;;;;;16.13;9.02;;;20.20;99.90;;;;;;5074376;28;20128;-80
2022/06/24 11:12:59;;;;;;;15.30;9.27;;;20.30;99.90;;;;;;5072397;28;20146;-79
2022/06/24 11:15:42;;;;;;;15.02;9.38;;;20.30;99.90;;;;;;5072818;28;20074;-81
2022/06/24 11:18:17;;;;;;;16.27;9.57;;;20.50;99.90;;;;;;5074837;28;20469;-78
2022/06/24 11:20:56;;;;;;;17.88;9.05;;;20.50;99.90;;;;;;5073352;28;20131;-78
2022/06/24 11:23:27;;;;;;;13.98;8.93;;;20.70;99.90;;;;;;5075376;28;20041;-77
2022/06/24 11:25:57;;;;;;;14.63;9.32;;;20.90;99.90;;;;;;5073079;28;20067;-76
2022/06/24 11:28:36;;;;;;;16.20;10.07;;;21.00;99.90;;;;;;5074945;28;20127;-76
2022/06/24 11:31:20;;;;;;;15.40;9.32;;;21.00;99.90;;;;;;5072871;28;20040;-74
2022/06/24 11:33:48;;;;;;;15.95;9.80;;;21.10;99.90;;;;;;5073921;28;20048;-78
2022/06/24 11:36:14;;;;;;;18.27;10.65;;;21.00;99.90;;;;;;5073502;28;20143;-77
2022/06/24 11:38:51;;;;;;;15.63;9.93;;;21.10;99.90;;;;;;5072322;28;20060;-78
2022/06/24 11:41:38;;;;;;;19.17;10.32;;;21.10;99.90;;;;;;5074303;28;20395;-78
2022/06/24 11:44:03;;;;;;;18.88;10.38;;;21.10;99.90;;;;;;5074502;28;20078;-79
2022/06/24 11:46:29;;;;;;;17.17;11.33;;;21.30;99.90;;;;;;5075160;28;20048;-80
2022/06/24 11:49:12;;;;;;;22.77;12.20;;;21.40;99.90;;;;;;5072926;28;20818;-77
2022/06/24 11:51:39;;;;;;;20.08;12.18;;;21.60;99.90;;;;;;5072427;28;20048;-81
2022/06/24 11:54:07;;;;;;;20.88;12.65;;;21.60;99.90;;;;;;5074893;28;20044;-76
2022/06/24 11:56:39;;;;;;;23.33;14.35;;;21.80;99.90;;;;;;5074111;28;20041;-77
2022/06/24 11:59:06;;;;;;;25.67;14.73;;;22.00;99.90;;;;;;5073970;28;20059;-78
2022/06/24 12:01:33;;;;;;;22.25;14.75;;;22.20;99.90;;;;;;5073936;28;20075;-78
2022/06/24 12:04:07;;;;;;;27.67;15.35;;;22.40;99.90;;;;;;5072461;28;20082;-77
2022/06/24 12:06:35;;;;;;;23.25;15.18;;;22.50;99.90;;;;;;5071690;28;20091;-78
2022/06/24 12:09:01;;;;;;;23.08;15.82;;;22.40;99.90;;;;;;5072005;28;20373;-78
2022/06/24 12:11:27;;;;;;;27.25;15.98;;;22.40;99.90;;;;;;5071910;28;20036;-77
2022/06/24 12:14:04;;;;;;;23.87;16.67;;;22.70;99.90;;;;;;5072687;28;20048;-77
2022/06/24 12:16:58;;;;;;;27.63;16.70;;;22.70;99.90;;;;;;5075707;28;20063;-78
2022/06/24 12:19:26;;;;;;;27.02;17.45;;;23.00;99.90;;;;;;5085927;28;20052;-77
2022/06/24 12:22:11;;;;;;;26.13;16.05;;;23.10;99.90;;;;;;5078946;28;20067;-79
2022/06/24 12:24:41;;;;;;;25.83;16.95;;;23.30;99.90;;;;;;5074116;28;20054;-79
2022/06/24 12:27:08;;;;;;;26.45;16.58;;;23.60;99.90;;;;;;5073278;28;20091;-79
2022/06/24 12:29:38;;;;;;;26.48;16.70;;;23.80;99.90;;;;;;5073815;28;20044;-77
2022/06/24 12:32:05;;;;;;;27.52;17.40;;;23.80;99.90;;;;;;5074172;28;20473;-75
2022/06/24 12:34:32;;;;;;;;;;;23.70;99.90;;;;;;5073579;28;20052;-74
2022/06/24 12:37:03;;;;;;;27.90;16.70;;;24.00;99.90;;;;;;5074109;28;19921;-82
2022/06/24 12:39:35;;;;;;;31.52;18.00;;;24.00;99.90;;;;;;5073213;28;20078;-79
2022/06/24 12:42:02;;;;;;;28.65;18.52;;;24.10;99.90;;;;;;5073903;28;20049;-80
2022/06/24 12:44:43;;;;;;;31.10;19.20;;;24.10;99.90;;;;;;5055728;28;20055;-81
2022/06/24 12:52:44;;;;;;;29.95;17.60;;;24.20;99.90;;;;;;5073049;28;20052;-77
2022/06/24 12:55:12;;;;;;;27.13;16.70;;;24.30;99.90;;;;;;5071890;28;20396;-79
2022/06/24 12:57:39;;;;;;;25.83;17.05;;;24.30;99.90;;;;;;5073759;28;20060;-76
2022/06/24 13:00:11;;;;;;;29.13;17.02;;;24.30;99.90;;;;;;5073784;28;20048;-77
2022/06/24 13:02:41;;;;;;;27.90;17.00;;;24.30;99.90;;;;;;5057142;28;20044;-81